createdAt,value
2019-02-19T00:00:13.324Z,33.77
2019-02-19T00:02:45.488Z,34.77
2019-02-19T00:05:15.750Z,31.10
2019-02-19T00:07:45.960Z,33.27
2019-02-19T00:10:17.238Z,34.20
2019-02-19T00:12:47.444Z,34.63
2019-02-19T00:15:18.009Z,34.17
2019-02-19T00:17:48.138Z,37.13
2019-02-19T00:20:18.404Z,36.33
2019-02-19T00:22:48.921Z,38.13
2019-02-19T00:25:19.406Z,37.13
2019-02-19T00:27:50.349Z,34.90
2019-02-19T00:30:20.594Z,28.53
2019-02-19T00:32:50.856Z,25.30
2019-02-19T00:35:21.049Z,24.77
2019-02-19T00:37:51.241Z,22.03
2019-02-19T00:40:21.465Z,27.37
2019-02-19T00:42:52.006Z,24.50
2019-02-19T00:45:22.279Z,19.97
2019-02-19T00:47:52.541Z,18.60
2019-02-19T00:50:23.473Z,17.97
2019-02-19T00:52:54.099Z,14.90
2019-02-19T00:55:24.282Z,16.37
2019-02-19T00:57:56.212Z,15.03
2019-02-19T01:00:26.922Z,11.80
2019-02-19T01:02:57.144Z,13.93
2019-02-19T01:05:27.367Z,15.63
2019-02-19T01:07:57.611Z,16.33
2019-02-19T01:10:28.599Z,14.40
2019-02-19T01:12:58.907Z,12.13
2019-02-19T01:15:29.203Z,13.70
2019-02-19T01:17:59.928Z,14.17
2019-02-19T01:20:30.430Z,15.13
2019-02-19T01:23:00.659Z,12.27
2019-02-19T01:25:30.835Z,11.87
2019-02-19T01:28:01.317Z,12.37
2019-02-19T01:30:31.872Z,14.27
2019-02-19T01:33:02.080Z,13.57
2019-02-19T01:35:32.996Z,11.53
2019-02-19T01:38:03.201Z,9.93
2019-02-19T01:40:33.399Z,12.10
2019-02-19T01:43:03.600Z,12.60
2019-02-19T01:45:34.398Z,11.93
2019-02-19T01:48:05.175Z,10.93
2019-02-19T01:50:35.367Z,11.83
2019-02-19T01:53:05.613Z,11.53
2019-02-19T01:55:35.788Z,11.03
2019-02-19T01:58:05.992Z,12.87
2019-02-19T02:00:36.183Z,11.70
2019-02-19T02:03:06.584Z,12.20
2019-02-19T02:05:36.854Z,11.80
2019-02-19T02:08:08.139Z,12.53
2019-02-19T02:10:38.335Z,11.47
2019-02-19T02:13:08.922Z,11.07
2019-02-19T02:15:42.695Z,14.33
2019-02-19T02:18:11.116Z,11.47
2019-02-19T02:20:41.312Z,15.87
2019-02-19T02:23:11.608Z,14.13
2019-02-19T02:25:41.771Z,11.63
2019-02-19T02:28:12.044Z,12.73
2019-02-19T02:30:42.201Z,9.47
2019-02-19T02:33:12.422Z,10.47
2019-02-19T02:35:42.613Z,11.57
2019-02-19T02:38:12.934Z,11.20
2019-02-19T02:40:43.184Z,14.00
2019-02-19T02:43:13.477Z,10.53
2019-02-19T02:45:53.068Z,8.80
2019-02-19T02:48:15.928Z,11.17
2019-02-19T02:50:46.459Z,12.93
2019-02-19T02:53:16.752Z,8.93
2019-02-19T02:55:46.928Z,10.53
2019-02-19T02:58:17.497Z,9.63
2019-02-19T03:00:47.683Z,10.23
2019-02-19T03:03:17.889Z,11.37
2019-02-19T03:06:21.713Z,12.70
2019-02-19T03:08:52.005Z,10.60
2019-02-19T03:11:22.224Z,11.50
2019-02-19T03:13:52.443Z,12.30
2019-02-19T03:16:23.026Z,11.50
2019-02-19T03:18:53.275Z,11.70
2019-02-19T03:21:23.508Z,12.87
2019-02-19T03:23:54.068Z,10.40
2019-02-19T03:26:24.252Z,11.10
2019-02-19T03:28:54.468Z,12.27
2019-02-19T03:31:25.059Z,10.77
2019-02-19T03:33:55.660Z,10.17
2019-02-19T03:36:25.897Z,11.67
2019-02-19T03:38:56.551Z,15.00
2019-02-19T03:41:26.751Z,9.60
2019-02-19T03:43:57.097Z,10.00
2019-02-19T03:46:27.277Z,11.90
2019-02-19T03:48:57.575Z,11.70
2019-02-19T03:51:27.757Z,12.77
2019-02-19T03:53:57.976Z,14.37
2019-02-19T03:56:28.236Z,15.10
2019-02-19T03:58:58.745Z,11.73
2019-02-19T04:01:28.998Z,12.97
2019-02-19T04:03:59.421Z,14.10
2019-02-19T04:06:29.648Z,16.70
2019-02-19T04:08:59.861Z,12.90
2019-02-19T04:11:30.333Z,13.83
2019-02-19T04:14:00.588Z,15.77
2019-02-19T04:16:30.772Z,11.67
2019-02-19T04:19:01.382Z,13.37
2019-02-19T04:21:31.627Z,13.60
2019-02-19T04:24:01.880Z,16.30
2019-02-19T04:26:32.338Z,11.73
2019-02-19T04:29:02.864Z,16.57
2019-02-19T04:31:33.700Z,15.63
2019-02-19T04:34:03.924Z,18.10
2019-02-19T04:36:34.104Z,14.73
2019-02-19T04:39:05.546Z,14.43
2019-02-19T04:41:35.935Z,17.80
2019-02-19T04:44:06.199Z,21.73
2019-02-19T04:46:36.729Z,15.30
2019-02-19T04:49:07.315Z,14.80
2019-02-19T04:51:37.512Z,14.13
2019-02-19T04:54:07.742Z,19.00
2019-02-19T04:56:37.965Z,16.30
2019-02-19T04:59:08.181Z,18.23
2019-02-19T05:01:38.340Z,18.80
2019-02-19T05:04:08.606Z,17.43
2019-02-19T05:06:39.845Z,18.30
2019-02-19T05:09:10.277Z,17.83
2019-02-19T05:11:40.557Z,18.43
2019-02-19T05:14:10.877Z,21.00
2019-02-19T05:16:41.317Z,18.47
2019-02-19T05:19:11.739Z,17.40
2019-02-19T05:21:41.935Z,19.67
2019-02-19T05:24:12.253Z,20.50
2019-02-19T05:26:42.505Z,22.37
2019-02-19T05:29:12.722Z,27.60
2019-02-19T05:31:43.198Z,17.30
2019-02-19T05:34:13.420Z,24.13
2019-02-19T05:36:43.631Z,20.60
2019-02-19T05:39:13.913Z,21.13
2019-02-19T05:41:44.557Z,20.37
2019-02-19T05:44:14.832Z,21.30
2019-02-19T05:46:49.811Z,23.27
2019-02-19T05:49:17.374Z,22.80
2019-02-19T05:51:47.574Z,21.27
2019-02-19T05:54:18.139Z,21.97
2019-02-19T05:56:48.320Z,26.10
2019-02-19T05:59:18.499Z,24.93
2019-02-19T06:01:48.713Z,19.30
2019-02-19T06:04:19.003Z,23.07
2019-02-19T06:06:49.249Z,25.13
2019-02-19T06:09:20.555Z,25.13
2019-02-19T06:11:50.811Z,20.70
2019-02-19T06:14:21.056Z,25.20
2019-02-19T06:16:58.272Z,25.73
2019-02-19T06:19:23.052Z,26.63
2019-02-19T06:21:53.231Z,25.17
2019-02-19T06:24:23.814Z,23.97
2019-02-19T06:26:54.018Z,23.90
2019-02-19T06:29:24.604Z,25.07
2019-02-19T06:31:54.863Z,25.50
2019-02-19T06:34:25.499Z,23.30
2019-02-19T06:36:56.070Z,26.80
2019-02-19T06:39:26.305Z,25.07
2019-02-19T06:41:56.860Z,23.27
2019-02-19T06:44:27.094Z,25.77
2019-02-19T06:46:57.340Z,27.23
2019-02-19T06:49:27.567Z,21.17
2019-02-19T06:51:57.762Z,22.07
2019-02-19T06:54:28.042Z,24.37
2019-02-19T06:56:58.262Z,29.53
2019-02-19T06:59:28.451Z,24.13
2019-02-19T07:02:23.392Z,24.83
2019-02-19T07:04:56.664Z,22.90
2019-02-19T07:07:26.835Z,28.57
2019-02-19T07:09:57.443Z,21.77
2019-02-19T07:12:27.677Z,21.93
2019-02-19T07:14:57.958Z,22.07
2019-02-19T07:17:28.508Z,26.97
2019-02-19T07:19:59.675Z,27.07
2019-02-19T07:22:30.206Z,24.17
2019-02-19T07:25:00.726Z,20.63
2019-02-19T07:27:30.916Z,23.53
2019-02-19T07:30:01.115Z,24.93
2019-02-19T07:32:31.317Z,23.57
2019-02-19T07:35:01.912Z,22.23
2019-02-19T07:37:32.057Z,23.77
2019-02-19T07:40:02.361Z,23.33
2019-02-19T07:42:32.552Z,23.43
2019-02-19T07:45:03.138Z,24.13
2019-02-19T07:47:33.378Z,22.40
2019-02-19T07:50:03.796Z,23.30
2019-02-19T07:52:33.934Z,22.60
2019-02-19T07:55:04.199Z,20.57
2019-02-19T07:57:34.783Z,21.87
2019-02-19T08:00:06.085Z,25.40
2019-02-19T08:02:37.044Z,23.93
2019-02-19T08:05:07.357Z,19.87
2019-02-19T08:07:37.492Z,18.40
2019-02-19T08:10:08.642Z,21.00
2019-02-19T08:12:38.825Z,20.23
2019-02-19T08:15:09.383Z,22.77
2019-02-19T08:17:40.006Z,23.13
2019-02-19T08:20:15.988Z,21.07
2019-02-19T08:22:42.596Z,19.37
2019-02-19T08:25:12.806Z,21.63
2019-02-19T08:27:42.981Z,18.50
2019-02-19T08:30:13.207Z,16.87
2019-02-19T08:32:43.712Z,18.03
2019-02-19T08:35:13.928Z,24.00
2019-02-19T08:37:44.488Z,18.37
2019-02-19T08:40:14.758Z,16.97
2019-02-19T08:42:44.949Z,19.13
2019-02-19T08:45:15.127Z,24.70
2019-02-19T08:47:45.341Z,18.60
2019-02-19T08:50:15.569Z,16.93
2019-02-19T08:52:45.751Z,16.53
2019-02-19T08:55:16.067Z,20.33
2019-02-19T08:57:46.196Z,20.07
2019-02-19T09:00:16.472Z,20.30
2019-02-19T09:02:46.734Z,19.17
2019-02-19T09:05:17.021Z,18.90
2019-02-19T09:07:47.205Z,16.80
2019-02-19T09:10:17.540Z,17.17
2019-02-19T09:12:47.772Z,18.00
2019-02-19T09:15:17.899Z,16.27
2019-02-19T09:17:52.072Z,16.63
2019-02-19T09:20:20.284Z,20.50
2019-02-19T09:22:50.456Z,19.93
2019-02-19T09:25:21.071Z,19.97
2019-02-19T09:27:51.265Z,12.17
2019-02-19T09:30:21.551Z,16.60
2019-02-19T09:32:51.748Z,14.77
2019-02-19T09:35:21.981Z,16.00
2019-02-19T09:37:52.237Z,19.00
2019-02-19T09:40:22.472Z,18.53
2019-02-19T09:42:52.672Z,15.17
2019-02-19T09:45:23.298Z,13.33
2019-02-19T09:48:01.012Z,17.73
2019-02-19T09:50:25.403Z,17.07
2019-02-19T09:53:00.077Z,15.50
2019-02-19T09:55:27.557Z,13.53
2019-02-19T09:57:57.754Z,21.87
2019-02-19T10:00:30.377Z,14.47
2019-02-19T10:03:00.703Z,13.67
2019-02-19T10:05:30.935Z,11.73
2019-02-19T10:08:01.446Z,7.47
2019-02-19T10:10:31.687Z,14.27
2019-02-19T10:13:01.944Z,14.80
2019-02-19T10:15:32.556Z,13.20
2019-02-19T10:18:10.101Z,12.30
2019-02-19T10:20:34.716Z,17.00
2019-02-19T10:23:04.928Z,11.83
2019-02-19T10:25:35.186Z,15.83
2019-02-19T10:28:05.759Z,10.80
2019-02-19T10:30:36.305Z,10.87
2019-02-19T10:33:06.495Z,13.10
2019-02-19T10:35:37.073Z,15.20
2019-02-19T10:38:07.595Z,12.13
2019-02-19T10:40:37.755Z,9.20
2019-02-19T10:43:08.352Z,14.87
2019-02-19T10:45:38.981Z,15.57
2019-02-19T10:48:09.614Z,8.53
2019-02-19T10:50:40.252Z,11.23
2019-02-19T10:53:10.587Z,14.67
2019-02-19T10:55:41.236Z,11.57
2019-02-19T10:58:11.873Z,13.17
2019-02-19T11:00:42.096Z,15.03
2019-02-19T11:03:12.641Z,12.13
2019-02-19T11:05:43.316Z,11.47
2019-02-19T11:08:13.788Z,11.33
2019-02-19T11:10:44.005Z,11.80
2019-02-19T11:13:14.605Z,11.60
2019-02-19T11:15:44.958Z,8.80
2019-02-19T11:18:15.190Z,10.33
2019-02-19T11:20:45.419Z,10.13
2019-02-19T11:23:15.700Z,13.00
2019-02-19T11:25:45.993Z,10.63
2019-02-19T11:28:16.557Z,11.57
2019-02-19T11:30:46.820Z,14.50
2019-02-19T11:33:18.856Z,8.63
2019-02-19T11:35:49.094Z,9.40
2019-02-19T11:38:19.301Z,11.87
2019-02-19T11:40:49.506Z,12.87
2019-02-19T11:43:19.729Z,8.30
2019-02-19T11:45:49.971Z,8.73
2019-02-19T11:48:20.202Z,11.77
2019-02-19T11:50:50.818Z,7.80
2019-02-19T11:53:22.337Z,9.57
2019-02-19T11:55:53.086Z,8.90
2019-02-19T11:58:23.348Z,9.10
2019-02-19T12:00:53.588Z,11.73
2019-02-19T12:03:23.877Z,10.17
2019-02-19T12:05:54.395Z,16.07
2019-02-19T12:08:25.331Z,10.97
2019-02-19T12:10:55.537Z,12.87
2019-02-19T12:13:25.717Z,10.10
2019-02-19T12:15:55.963Z,10.33
2019-02-19T12:18:26.163Z,9.00
2019-02-19T12:20:56.386Z,11.47
2019-02-19T12:23:26.647Z,11.60
2019-02-19T12:25:56.942Z,10.43
2019-02-19T12:28:27.199Z,7.97
2019-02-19T12:30:57.438Z,7.57
2019-02-19T12:33:27.694Z,9.30
2019-02-19T12:35:58.013Z,9.00
2019-02-19T12:38:28.253Z,10.47
2019-02-19T12:40:58.517Z,8.77
2019-02-19T12:43:28.760Z,12.27
2019-02-19T12:45:59.068Z,12.97
2019-02-19T12:48:29.342Z,8.80
2019-02-19T12:50:59.580Z,8.73
2019-02-19T12:53:29.800Z,12.33
2019-02-19T12:56:00.409Z,12.70
2019-02-19T12:58:30.738Z,8.57
2019-02-19T13:01:01.259Z,10.50
2019-02-19T13:03:31.612Z,8.50
2019-02-19T13:06:02.263Z,7.77
2019-02-19T13:08:32.539Z,9.23
2019-02-19T13:11:02.774Z,8.53
2019-02-19T13:13:32.992Z,10.50
2019-02-19T13:16:03.516Z,11.57
2019-02-19T13:18:33.638Z,11.07
2019-02-19T13:21:03.871Z,9.47
2019-02-19T13:23:34.521Z,11.30
2019-02-19T13:26:04.808Z,16.70
2019-02-19T13:28:35.000Z,7.37
2019-02-19T13:31:05.290Z,12.17
2019-02-19T13:33:35.534Z,14.83
2019-02-19T13:36:06.214Z,8.80
2019-02-19T13:38:36.420Z,12.13
2019-02-19T13:41:06.677Z,12.53
2019-02-19T13:43:36.826Z,11.80
2019-02-19T13:46:07.175Z,14.40
2019-02-19T13:48:37.832Z,7.47
2019-02-19T13:51:08.080Z,9.10
2019-02-19T13:54:00.604Z,13.87
2019-02-19T13:56:30.770Z,9.53
2019-02-19T13:59:01.301Z,10.47
2019-02-19T14:01:31.897Z,10.10
2019-02-19T14:04:02.049Z,9.53
2019-02-19T14:06:32.349Z,7.23
2019-02-19T14:09:02.563Z,15.47
2019-02-19T14:11:34.709Z,11.43
2019-02-19T14:14:30.421Z,14.10
2019-02-19T14:17:03.965Z,11.67
2019-02-19T14:19:57.000Z,15.23
2019-02-19T14:22:45.197Z,9.83
2019-02-19T14:25:34.192Z,8.73
2019-02-19T14:28:23.764Z,11.67
2019-02-19T14:31:12.905Z,14.90
2019-02-19T14:33:56.312Z,14.13
2019-02-19T14:36:45.457Z,7.57
2019-02-19T14:39:34.423Z,16.93
2019-02-19T14:42:22.849Z,11.77
2019-02-19T14:45:11.090Z,15.73
2019-02-19T14:47:54.197Z,10.40
2019-02-19T14:50:33.771Z,7.73
2019-02-19T14:53:32.521Z,13.77
2019-02-19T14:56:18.483Z,11.53
2019-02-19T14:59:06.511Z,12.53
2019-02-19T15:02:10.812Z,13.03
2019-02-19T15:05:08.023Z,12.67
2019-02-19T15:07:44.764Z,11.07
2019-02-19T15:10:36.983Z,13.37
2019-02-19T15:13:24.802Z,12.63
2019-02-19T15:16:22.715Z,9.13
2019-02-19T15:19:24.388Z,8.03
2019-02-19T15:22:13.613Z,11.40
2019-02-19T15:25:05.916Z,8.53
2019-02-19T15:27:54.020Z,10.80
2019-02-19T15:30:43.221Z,12.90
2019-02-19T15:33:33.596Z,7.13
2019-02-19T15:36:21.702Z,9.27
2019-02-19T15:38:58.982Z,7.80
2019-02-19T15:42:03.289Z,10.17
2019-02-19T15:45:00.221Z,10.07
2019-02-19T15:47:55.411Z,12.83
2019-02-19T15:50:43.125Z,10.07
2019-02-19T15:53:32.237Z,8.67
2019-02-19T15:56:17.421Z,9.43
2019-02-19T15:59:10.879Z,13.03
2019-02-19T16:02:02.912Z,14.40
2019-02-19T16:04:51.040Z,11.43
2019-02-19T16:07:28.170Z,12.27
2019-02-19T16:10:16.354Z,13.63
2019-02-19T16:13:10.685Z,15.53
2019-02-19T16:16:15.137Z,14.10
2019-02-19T16:19:03.867Z,22.17
2019-02-19T16:22:11.430Z,14.00
2019-02-19T16:24:56.661Z,13.53
2019-02-19T16:27:33.553Z,13.07
2019-02-19T16:30:10.674Z,21.53
2019-02-19T16:33:06.255Z,15.60
2019-02-19T16:35:46.044Z,15.17
2019-02-19T16:38:30.898Z,17.77
2019-02-19T16:41:35.509Z,17.90
2019-02-19T16:44:34.019Z,16.93
2019-02-19T16:47:29.293Z,14.17
2019-02-19T16:50:21.109Z,13.63
2019-02-19T16:53:10.280Z,11.43
2019-02-19T16:56:05.640Z,15.17
2019-02-19T16:58:55.439Z,10.57
2019-02-19T17:01:47.676Z,11.23
2019-02-19T17:04:39.598Z,9.83
2019-02-19T17:07:18.474Z,11.47
2019-02-19T17:10:09.409Z,10.63
2019-02-19T17:12:57.084Z,13.63
2019-02-19T17:15:45.091Z,14.17
2019-02-19T17:18:33.411Z,9.80
2019-02-19T17:21:25.334Z,12.83
2019-02-19T17:24:05.090Z,8.10
2019-02-19T17:27:12.949Z,10.93
2019-02-19T17:29:55.513Z,10.00
2019-02-19T17:32:53.417Z,10.93
2019-02-19T17:35:31.156Z,12.97
2019-02-19T17:38:16.820Z,9.37
2019-02-19T17:41:03.928Z,10.23
2019-02-19T17:43:44.812Z,11.03
2019-02-19T17:46:37.113Z,8.77
2019-02-19T17:49:35.533Z,13.37
2019-02-19T17:52:23.483Z,13.47
2019-02-19T17:55:00.966Z,11.53
2019-02-19T17:57:41.049Z,15.10
2019-02-19T18:00:17.275Z,11.30
2019-02-19T18:03:12.720Z,15.33
2019-02-19T18:06:05.947Z,13.67
2019-02-19T18:08:55.818Z,12.73
2019-02-19T18:11:42.796Z,12.17
2019-02-19T18:14:23.329Z,9.97
2019-02-19T18:17:18.624Z,10.53
2019-02-19T18:19:49.140Z,10.37
2019-02-19T18:22:20.459Z,6.97
2019-02-19T18:24:50.693Z,8.50
2019-02-19T18:27:20.932Z,10.53
2019-02-19T18:29:51.177Z,7.07
2019-02-19T18:32:21.456Z,10.83
2019-02-19T18:34:52.144Z,8.30
2019-02-19T18:37:22.339Z,10.80
2019-02-19T18:39:52.845Z,9.43
2019-02-19T18:42:23.063Z,10.23
2019-02-19T18:44:53.310Z,12.80
2019-02-19T18:47:23.873Z,11.60
2019-02-19T18:49:55.271Z,10.07
2019-02-19T18:52:25.536Z,10.70
2019-02-19T18:54:55.811Z,11.53
2019-02-19T18:57:26.074Z,13.33
2019-02-19T18:59:56.293Z,12.77
2019-02-19T19:02:26.504Z,10.43
2019-02-19T19:04:56.806Z,15.73
2019-02-19T19:07:27.531Z,16.17
2019-02-19T19:09:57.808Z,13.10
2019-02-19T19:12:28.093Z,11.97
2019-02-19T19:14:58.357Z,14.20
2019-02-19T19:17:28.862Z,17.93
2019-02-19T19:19:59.473Z,17.63
2019-02-19T19:22:30.140Z,13.63
2019-02-19T19:25:03.375Z,14.57
2019-02-19T19:27:33.597Z,12.00
2019-02-19T19:30:06.880Z,13.23
2019-02-19T19:32:37.441Z,13.63
2019-02-19T19:35:08.799Z,11.50
2019-02-19T19:37:39.335Z,18.20
2019-02-19T19:40:09.980Z,10.20
2019-02-19T19:42:40.315Z,15.33
2019-02-19T19:45:10.667Z,11.87
2019-02-19T19:47:40.871Z,10.67
2019-02-19T19:50:11.524Z,12.63
2019-02-19T19:52:41.849Z,14.63
2019-02-19T19:55:12.181Z,12.67
2019-02-19T19:57:42.545Z,11.50
2019-02-19T20:00:13.444Z,12.67
2019-02-19T20:02:44.118Z,16.30
2019-02-19T20:05:14.508Z,13.13
2019-02-19T20:07:45.031Z,15.23
2019-02-19T20:10:15.677Z,13.03
2019-02-19T20:12:46.017Z,16.03
2019-02-19T20:15:16.654Z,14.13
2019-02-19T20:17:46.881Z,14.50
2019-02-19T20:20:17.508Z,19.97
2019-02-19T20:22:47.805Z,14.50
2019-02-19T20:25:18.054Z,15.17
2019-02-19T20:27:48.265Z,13.90
2019-02-19T20:30:18.565Z,17.47
2019-02-19T20:32:48.875Z,18.50
2019-02-19T20:35:19.224Z,13.03
2019-02-19T20:37:53.942Z,18.03
2019-02-19T20:40:22.987Z,17.40
2019-02-19T20:42:55.282Z,15.13
2019-02-19T20:45:28.413Z,18.63
2019-02-19T20:48:03.530Z,22.40
2019-02-19T20:50:34.158Z,13.57
2019-02-19T20:53:04.433Z,16.80
2019-02-19T20:55:39.736Z,17.87
2019-02-19T20:58:11.365Z,17.97
2019-02-19T21:00:41.650Z,21.73
2019-02-19T21:03:12.333Z,16.63
2019-02-19T21:05:43.076Z,17.97
2019-02-19T21:08:13.628Z,21.10
2019-02-19T21:10:43.973Z,15.83
2019-02-19T21:13:14.314Z,14.33
2019-02-19T21:15:44.767Z,14.47
2019-02-19T21:18:15.413Z,25.77
2019-02-19T21:20:45.743Z,13.90
2019-02-19T21:23:16.092Z,13.77
2019-02-19T21:25:46.845Z,15.33
2019-02-19T21:28:17.070Z,18.67
2019-02-19T21:30:47.650Z,17.93
2019-02-19T21:33:17.999Z,15.60
2019-02-19T21:35:48.272Z,15.40
2019-02-19T21:38:18.647Z,19.10
2019-02-19T21:40:49.549Z,17.53
2019-02-19T21:43:19.879Z,17.07
2019-02-19T21:45:50.180Z,13.17
2019-02-19T21:48:20.473Z,14.83
2019-02-19T21:50:50.795Z,14.97
2019-02-19T21:53:21.284Z,13.80
2019-02-19T21:55:51.591Z,16.00
2019-02-19T21:58:21.842Z,14.63
2019-02-19T22:00:52.119Z,15.83
2019-02-19T22:03:23.603Z,16.87
2019-02-19T22:05:53.870Z,14.87
2019-02-19T22:08:24.164Z,20.93
2019-02-19T22:10:54.731Z,15.17
2019-02-19T22:13:24.958Z,16.53
2019-02-19T22:15:55.340Z,16.60
2019-02-19T22:18:25.545Z,22.67
2019-02-19T22:21:04.290Z,16.77
2019-02-19T22:23:34.583Z,16.03
2019-02-19T22:26:05.114Z,18.40
2019-02-19T22:28:35.387Z,14.40
2019-02-19T22:31:05.601Z,19.20
2019-02-19T22:33:35.781Z,17.90
2019-02-19T22:36:05.998Z,15.37
2019-02-19T22:38:36.176Z,17.47
2019-02-19T22:41:06.435Z,15.53
2019-02-19T22:43:36.626Z,22.17
2019-02-19T22:46:06.825Z,12.60
2019-02-19T22:48:37.307Z,15.83
2019-02-19T22:51:07.571Z,19.60
2019-02-19T22:53:59.680Z,21.60
2019-02-19T22:56:32.616Z,14.47
2019-02-19T22:59:03.178Z,20.63
2019-02-19T23:01:51.770Z,16.27
2019-02-19T23:04:22.818Z,17.47
2019-02-19T23:06:53.022Z,18.37
2019-02-19T23:09:23.275Z,19.47
2019-02-19T23:11:53.495Z,17.57
2019-02-19T23:14:24.075Z,14.87
2019-02-19T23:16:55.339Z,13.50
2019-02-19T23:19:25.649Z,19.23
2019-02-19T23:21:55.853Z,16.50
2019-02-19T23:24:26.034Z,14.97
2019-02-19T23:26:56.339Z,12.77
2019-02-19T23:29:26.611Z,18.27
2019-02-19T23:31:57.037Z,15.97
2019-02-19T23:34:27.289Z,17.37
2019-02-19T23:37:12.095Z,14.90
2019-02-19T23:39:43.859Z,16.83
2019-02-19T23:42:15.815Z,14.63
2019-02-19T23:44:46.343Z,15.60
2019-02-19T23:47:16.581Z,19.40
2019-02-19T23:49:46.845Z,17.10
2019-02-19T23:52:17.141Z,17.77
2019-02-19T23:54:47.711Z,16.67
2019-02-19T23:57:17.959Z,16.57
2019-02-19T23:59:48.153Z,17.97
